HXA9790 ZUNC-ZSHC
Flight info
| Callsign | HXA9790 |
|---|---|
| Flight time | 1h 50m |
| Altitude | 26600 |
| Route | VINEX V38 TOSIM B213 WTM W685 IDGAG W80 XSH H17 JDZ H26 TXN G204 OREXA |
| Aircraft | A320/M-SDE2E3FGILRWXY/LB1 |
Departure
| Time | 2026-05-06 09:39 |
|---|---|
| Airport | Nanchong Gaoping Airport (ZUNC) |
Arrival
| Time | 2026-05-06 11:29 |
|---|---|
| Airport | Hangzhou Xiaoshan International Airport (ZSHC) |
| Time | Latitude | Longitude | Altitude | Speed | Heading |
|---|---|---|---|---|---|
| 2026-05-06 09:20 | 30.79085 | 106.16036 | 1154 ft | 0 kts | 148° |
| 2026-05-06 09:30 | 30.79095 | 106.16029 | 1153 ft | 1 kts | 146° |
| 2026-05-06 09:30 | 30.79105 | 106.16021 | 1156 ft | 2 kts | 143° |
| 2026-05-06 09:30 | 30.79114 | 106.16013 | 1156 ft | 2 kts | 141° |
| 2026-05-06 09:30 | 30.79124 | 106.16004 | 1156 ft | 2 kts | 135° |
| 2026-05-06 09:31 | 30.79132 | 106.15993 | 1155 ft | 1 kts | 123° |
| 2026-05-06 09:31 | 30.79138 | 106.15981 | 1154 ft | 1 kts | 92° |
| 2026-05-06 09:31 | 30.79137 | 106.15968 | 1154 ft | 1 kts | 62° |
| 2026-05-06 09:31 | 30.79135 | 106.15964 | 1154 ft | 0 kts | 60° |
| 2026-05-06 09:34 | 30.79142 | 106.15978 | 1152 ft | 4 kts | 60° |
| 2026-05-06 09:34 | 30.79162 | 106.16020 | 1153 ft | 8 kts | 61° |
| 2026-05-06 09:35 | 30.79202 | 106.16068 | 1154 ft | 9 kts | 13° |
| 2026-05-06 09:35 | 30.79265 | 106.16035 | 1153 ft | 11 kts | 330° |
| 2026-05-06 09:35 | 30.79337 | 106.15986 | 1154 ft | 13 kts | 328° |
| 2026-05-06 09:35 | 30.79357 | 106.15901 | 1155 ft | 11 kts | 243° |
| 2026-05-06 09:36 | 30.79322 | 106.15838 | 1157 ft | 9 kts | 237° |
| 2026-05-06 09:36 | 30.79284 | 106.15763 | 1159 ft | 14 kts | 239° |
| 2026-05-06 09:36 | 30.79225 | 106.15651 | 1160 ft | 15 kts | 238° |
| 2026-05-06 09:36 | 30.79171 | 106.15550 | 1164 ft | 15 kts | 238° |
| 2026-05-06 09:37 | 30.79114 | 106.15440 | 1166 ft | 16 kts | 239° |
| 2026-05-06 09:37 | 30.79065 | 106.15345 | 1169 ft | 12 kts | 241° |
| 2026-05-06 09:37 | 30.79090 | 106.15256 | 1168 ft | 14 kts | 329° |
| 2026-05-06 09:37 | 30.79179 | 106.15233 | 1168 ft | 15 kts | 37° |
| 2026-05-06 09:38 | 30.79204 | 106.15271 | 1164 ft | 0 kts | 58° |
| 2026-05-06 09:38 | 30.79214 | 106.15292 | 1164 ft | 21 kts | 58° |
| 2026-05-06 09:38 | 30.79431 | 106.15698 | 1157 ft | 94 kts | 58° |
| 2026-05-06 09:38 | 30.79891 | 106.16532 | 1144 ft | 148 kts | 52° |
| 2026-05-06 09:39 | 30.80458 | 106.17558 | 1735 ft | 148 kts | 54° |
| 2026-05-06 09:39 | 30.81010 | 106.18618 | 2217 ft | 165 kts | 60° |
| 2026-05-06 09:39 | 30.81123 | 106.19998 | 2642 ft | 186 kts | 102° |
| 2026-05-06 09:39 | 30.80304 | 106.21220 | 3213 ft | 200 kts | 132° |
| 2026-05-06 09:40 | 30.79160 | 106.22165 | 3769 ft | 203 kts | 137° |
| 2026-05-06 09:40 | 30.77992 | 106.23071 | 4374 ft | 201 kts | 137° |
| 2026-05-06 09:40 | 30.75499 | 106.25130 | 4875 ft | 243 kts | 138° |
| 2026-05-06 09:41 | 30.74080 | 106.26376 | 5224 ft | 268 kts | 137° |
| 2026-05-06 09:41 | 30.72565 | 106.27733 | 5814 ft | 279 kts | 138° |
| 2026-05-06 09:41 | 30.71020 | 106.29137 | 6549 ft | 285 kts | 139° |
| 2026-05-06 09:41 | 30.69459 | 106.30573 | 7299 ft | 288 kts | 139° |
| 2026-05-06 09:42 | 30.67880 | 106.32039 | 8067 ft | 293 kts | 139° |
| 2026-05-06 09:42 | 30.66270 | 106.33541 | 8814 ft | 298 kts | 140° |
| 2026-05-06 09:42 | 30.65202 | 106.34545 | 9304 ft | 301 kts | 138° |
| 2026-05-06 09:42 | 30.63422 | 106.37082 | 10250 ft | 309 kts | 117° |
| 2026-05-06 09:43 | 30.62734 | 106.39455 | 10961 ft | 313 kts | 99° |
| 2026-05-06 09:43 | 30.62638 | 106.41128 | 11405 ft | 316 kts | 87° |
| 2026-05-06 09:43 | 30.62953 | 106.43663 | 12086 ft | 319 kts | 80° |
| 2026-05-06 09:43 | 30.63340 | 106.46217 | 12764 ft | 323 kts | 80° |
| 2026-05-06 09:44 | 30.63735 | 106.48836 | 13075 ft | 340 kts | 80° |
| 2026-05-06 09:44 | 30.64150 | 106.51626 | 13212 ft | 361 kts | 81° |
| 2026-05-06 09:44 | 30.64586 | 106.54581 | 13438 ft | 377 kts | 81° |
| 2026-05-06 09:44 | 30.64992 | 106.57617 | 13908 ft | 383 kts | 85° |
| 2026-05-06 09:45 | 30.64963 | 106.60715 | 14426 ft | 386 kts | 98° |
| 2026-05-06 09:45 | 30.64384 | 106.63760 | 14967 ft | 388 kts | 110° |
| 2026-05-06 09:45 | 30.63275 | 106.66612 | 15500 ft | 389 kts | 122° |
| 2026-05-06 09:45 | 30.61789 | 106.69241 | 16021 ft | 391 kts | 122° |
| 2026-05-06 09:46 | 30.60669 | 106.72137 | 16538 ft | 396 kts | 108° |
| 2026-05-06 09:46 | 30.60147 | 106.75285 | 17057 ft | 400 kts | 96° |
| 2026-05-06 09:46 | 30.59899 | 106.78520 | 17569 ft | 403 kts | 96° |
| 2026-05-06 09:46 | 30.59614 | 106.81764 | 18077 ft | 406 kts | 96° |
| 2026-05-06 09:47 | 30.59296 | 106.85039 | 18501 ft | 410 kts | 97° |
| 2026-05-06 09:47 | 30.58958 | 106.88332 | 18911 ft | 413 kts | 97° |
| 2026-05-06 09:47 | 30.58612 | 106.91661 | 19296 ft | 417 kts | 97° |
| 2026-05-06 09:47 | 30.58271 | 106.94975 | 19676 ft | 421 kts | 97° |
| 2026-05-06 09:48 | 30.57929 | 106.98363 | 20061 ft | 425 kts | 97° |
| 2026-05-06 09:48 | 30.57587 | 107.01777 | 20448 ft | 428 kts | 97° |
| 2026-05-06 09:48 | 30.57243 | 107.05229 | 20822 ft | 432 kts | 97° |
| 2026-05-06 09:48 | 30.56897 | 107.08709 | 21154 ft | 436 kts | 97° |
| 2026-05-06 09:49 | 30.56551 | 107.12214 | 21511 ft | 440 kts | 97° |
| 2026-05-06 09:49 | 30.56198 | 107.15759 | 21870 ft | 444 kts | 97° |
| 2026-05-06 09:49 | 30.55841 | 107.19324 | 22231 ft | 447 kts | 97° |
| 2026-05-06 09:49 | 30.55476 | 107.22925 | 22596 ft | 451 kts | 97° |
| 2026-05-06 09:50 | 30.55107 | 107.26556 | 22935 ft | 455 kts | 98° |
| 2026-05-06 09:50 | 30.54735 | 107.30222 | 23281 ft | 459 kts | 97° |
| 2026-05-06 09:50 | 30.54360 | 107.33911 | 23590 ft | 461 kts | 97° |
| 2026-05-06 09:50 | 30.53982 | 107.37611 | 23898 ft | 464 kts | 97° |
| 2026-05-06 09:51 | 30.53600 | 107.41342 | 24203 ft | 467 kts | 97° |
| 2026-05-06 09:51 | 30.53216 | 107.45089 | 24481 ft | 470 kts | 97° |
| 2026-05-06 09:51 | 30.52827 | 107.48864 | 24765 ft | 473 kts | 97° |
| 2026-05-06 09:51 | 30.52434 | 107.52657 | 25069 ft | 475 kts | 97° |
| 2026-05-06 09:52 | 30.52040 | 107.56463 | 25378 ft | 477 kts | 97° |
| 2026-05-06 09:52 | 30.51639 | 107.60303 | 25668 ft | 479 kts | 97° |
| 2026-05-06 09:52 | 30.51237 | 107.64148 | 25965 ft | 481 kts | 97° |
| 2026-05-06 09:52 | 30.50833 | 107.68006 | 26257 ft | 484 kts | 97° |
| 2026-05-06 09:53 | 30.50426 | 107.71895 | 26382 ft | 483 kts | 97° |
| 2026-05-06 09:53 | 30.50025 | 107.75729 | 26404 ft | 478 kts | 97° |
| 2026-05-06 09:53 | 30.49623 | 107.79554 | 26403 ft | 477 kts | 97° |
| 2026-05-06 09:53 | 30.49220 | 107.83368 | 26399 ft | 477 kts | 97° |
| 2026-05-06 09:54 | 30.48816 | 107.87174 | 26404 ft | 477 kts | 97° |
| 2026-05-06 09:54 | 30.48407 | 107.90993 | 26410 ft | 477 kts | 98° |
| 2026-05-06 09:54 | 30.47998 | 107.94808 | 26413 ft | 476 kts | 97° |
| 2026-05-06 09:54 | 30.47589 | 107.98624 | 26409 ft | 476 kts | 98° |
| 2026-05-06 09:55 | 30.47180 | 108.02429 | 26422 ft | 476 kts | 98° |
| 2026-05-06 09:55 | 30.46771 | 108.06237 | 26418 ft | 476 kts | 98° |
| 2026-05-06 09:55 | 30.46360 | 108.10053 | 26420 ft | 476 kts | 98° |
| 2026-05-06 09:55 | 30.45948 | 108.13853 | 26417 ft | 476 kts | 98° |
| 2026-05-06 09:56 | 30.45535 | 108.17660 | 26414 ft | 476 kts | 98° |
| 2026-05-06 09:56 | 30.45120 | 108.21468 | 26413 ft | 476 kts | 98° |
| 2026-05-06 09:56 | 30.44704 | 108.25276 | 26416 ft | 476 kts | 98° |
| 2026-05-06 09:56 | 30.44288 | 108.29082 | 26414 ft | 476 kts | 97° |
| 2026-05-06 09:57 | 30.43876 | 108.32841 | 26413 ft | 476 kts | 98° |
| 2026-05-06 09:57 | 30.43452 | 108.36689 | 26411 ft | 476 kts | 98° |
| 2026-05-06 09:57 | 30.43039 | 108.40443 | 26409 ft | 476 kts | 98° |
| 2026-05-06 09:57 | 30.42621 | 108.44244 | 26416 ft | 476 kts | 98° |
| 2026-05-06 09:58 | 30.42200 | 108.48093 | 26415 ft | 475 kts | 98° |
| 2026-05-06 09:58 | 30.41788 | 108.51837 | 26412 ft | 475 kts | 98° |
| 2026-05-06 09:58 | 30.41363 | 108.55633 | 26416 ft | 475 kts | 98° |
| 2026-05-06 09:58 | 30.40936 | 108.59433 | 26426 ft | 476 kts | 98° |
| 2026-05-06 09:59 | 30.40504 | 108.63281 | 26425 ft | 475 kts | 98° |
| 2026-05-06 09:59 | 30.40084 | 108.67024 | 26422 ft | 475 kts | 98° |
| 2026-05-06 09:59 | 30.39660 | 108.70810 | 26419 ft | 475 kts | 98° |
| 2026-05-06 09:59 | 30.39232 | 108.74608 | 26418 ft | 474 kts | 98° |
| 2026-05-06 10:00 | 30.38802 | 108.78400 | 26416 ft | 474 kts | 98° |
| 2026-05-06 10:00 | 30.38372 | 108.82186 | 26418 ft | 474 kts | 98° |
| 2026-05-06 10:00 | 30.37939 | 108.85977 | 26426 ft | 474 kts | 98° |
| 2026-05-06 10:00 | 30.37506 | 108.89760 | 26428 ft | 474 kts | 98° |
| 2026-05-06 10:01 | 30.37070 | 108.93546 | 26429 ft | 474 kts | 98° |
| 2026-05-06 10:01 | 30.36637 | 108.97332 | 26427 ft | 474 kts | 98° |
| 2026-05-06 10:01 | 30.36203 | 109.01122 | 26436 ft | 474 kts | 98° |
| 2026-05-06 10:01 | 30.35769 | 109.04893 | 26437 ft | 474 kts | 98° |
| 2026-05-06 10:02 | 30.35330 | 109.08676 | 26435 ft | 474 kts | 98° |
| 2026-05-06 10:02 | 30.34889 | 109.12458 | 26434 ft | 474 kts | 98° |
| 2026-05-06 10:02 | 30.34447 | 109.16243 | 26434 ft | 474 kts | 98° |
| 2026-05-06 10:02 | 30.34003 | 109.20016 | 26435 ft | 474 kts | 98° |
| 2026-05-06 10:03 | 30.33558 | 109.23802 | 26434 ft | 474 kts | 98° |
| 2026-05-06 10:03 | 30.33115 | 109.27588 | 26424 ft | 474 kts | 98° |
| 2026-05-06 10:03 | 30.32793 | 109.31374 | 26421 ft | 474 kts | 91° |
| 2026-05-06 10:03 | 30.32954 | 109.35175 | 26433 ft | 473 kts | 82° |
| 2026-05-06 10:04 | 30.33620 | 109.38897 | 26443 ft | 471 kts | 72° |
| 2026-05-06 10:04 | 30.34518 | 109.42534 | 26435 ft | 470 kts | 73° |
| 2026-05-06 10:04 | 30.35407 | 109.46175 | 26424 ft | 470 kts | 73° |
| 2026-05-06 10:04 | 30.36290 | 109.49823 | 26434 ft | 469 kts | 73° |
| 2026-05-06 10:05 | 30.37165 | 109.53461 | 26421 ft | 469 kts | 73° |
| 2026-05-06 10:05 | 30.38036 | 109.57096 | 26406 ft | 469 kts | 73° |
| 2026-05-06 10:05 | 30.38889 | 109.60751 | 26410 ft | 469 kts | 76° |
| 2026-05-06 10:05 | 30.39469 | 109.64463 | 26412 ft | 469 kts | 80° |
| 2026-05-06 10:06 | 30.40009 | 109.68200 | 26409 ft | 469 kts | 80° |
| 2026-05-06 10:06 | 30.40552 | 109.71924 | 26409 ft | 469 kts | 80° |
| 2026-05-06 10:06 | 30.41099 | 109.75654 | 26410 ft | 470 kts | 80° |
| 2026-05-06 10:06 | 30.41649 | 109.79384 | 26408 ft | 469 kts | 80° |
| 2026-05-06 10:07 | 30.42195 | 109.83065 | 26403 ft | 470 kts | 80° |
| 2026-05-06 10:07 | 30.42748 | 109.86799 | 26407 ft | 471 kts | 80° |
| 2026-05-06 10:07 | 30.43298 | 109.90542 | 26401 ft | 471 kts | 80° |
| 2026-05-06 10:07 | 30.43842 | 109.94286 | 26401 ft | 471 kts | 80° |
| 2026-05-06 10:08 | 30.44385 | 109.98036 | 26402 ft | 472 kts | 80° |
| 2026-05-06 10:08 | 30.44927 | 110.01783 | 26404 ft | 472 kts | 80° |
| 2026-05-06 10:08 | 30.45472 | 110.05537 | 26404 ft | 472 kts | 80° |
| 2026-05-06 10:08 | 30.46014 | 110.09283 | 26408 ft | 472 kts | 80° |
| 2026-05-06 10:09 | 30.46556 | 110.13043 | 26412 ft | 473 kts | 80° |
| 2026-05-06 10:09 | 30.47103 | 110.16842 | 26409 ft | 473 kts | 80° |
| 2026-05-06 10:09 | 30.47638 | 110.20558 | 26406 ft | 472 kts | 80° |
| 2026-05-06 10:09 | 30.48178 | 110.24314 | 26410 ft | 472 kts | 80° |
| 2026-05-06 10:10 | 30.48712 | 110.28065 | 26409 ft | 472 kts | 80° |
| 2026-05-06 10:10 | 30.49245 | 110.31820 | 26407 ft | 472 kts | 80° |
| 2026-05-06 10:10 | 30.49782 | 110.35576 | 26402 ft | 472 kts | 81° |
| 2026-05-06 10:10 | 30.50317 | 110.39325 | 26398 ft | 472 kts | 80° |
| 2026-05-06 10:11 | 30.50850 | 110.43084 | 26395 ft | 472 kts | 80° |
| 2026-05-06 10:11 | 30.51379 | 110.46844 | 26397 ft | 472 kts | 81° |
| 2026-05-06 10:11 | 30.51909 | 110.50603 | 26385 ft | 473 kts | 81° |
| 2026-05-06 10:11 | 30.52440 | 110.54364 | 26383 ft | 473 kts | 81° |
| 2026-05-06 10:12 | 30.52967 | 110.58125 | 26387 ft | 473 kts | 81° |
| 2026-05-06 10:12 | 30.53496 | 110.61900 | 26376 ft | 473 kts | 81° |
| 2026-05-06 10:12 | 30.54023 | 110.65666 | 26378 ft | 474 kts | 81° |
| 2026-05-06 10:12 | 30.54549 | 110.69439 | 26376 ft | 474 kts | 81° |
| 2026-05-06 10:13 | 30.55071 | 110.73207 | 26380 ft | 474 kts | 81° |
| 2026-05-06 10:13 | 30.55596 | 110.76991 | 26369 ft | 474 kts | 81° |
| 2026-05-06 10:13 | 30.56122 | 110.80768 | 26358 ft | 474 kts | 81° |
| 2026-05-06 10:13 | 30.56650 | 110.84546 | 26360 ft | 474 kts | 81° |
| 2026-05-06 10:14 | 30.57176 | 110.88322 | 26344 ft | 475 kts | 81° |
| 2026-05-06 10:14 | 30.57697 | 110.92099 | 26346 ft | 475 kts | 81° |
| 2026-05-06 10:14 | 30.58214 | 110.95881 | 26346 ft | 475 kts | 81° |
| 2026-05-06 10:14 | 30.58735 | 110.99670 | 26344 ft | 475 kts | 81° |
| 2026-05-06 10:15 | 30.59254 | 111.03450 | 26345 ft | 475 kts | 81° |
| 2026-05-06 10:15 | 30.59773 | 111.07243 | 26348 ft | 475 kts | 81° |
| 2026-05-06 10:15 | 30.60286 | 111.11021 | 26352 ft | 474 kts | 81° |
| 2026-05-06 10:15 | 30.60798 | 111.14805 | 26336 ft | 474 kts | 81° |
| 2026-05-06 10:16 | 30.61309 | 111.18594 | 26332 ft | 474 kts | 81° |
| 2026-05-06 10:16 | 30.61817 | 111.22369 | 26332 ft | 475 kts | 81° |
| 2026-05-06 10:16 | 30.62326 | 111.26162 | 26331 ft | 475 kts | 81° |
| 2026-05-06 10:16 | 30.62834 | 111.29948 | 26321 ft | 475 kts | 81° |
| 2026-05-06 10:17 | 30.63341 | 111.33742 | 26322 ft | 475 kts | 81° |
| 2026-05-06 10:17 | 30.63846 | 111.37523 | 26323 ft | 475 kts | 81° |
| 2026-05-06 10:17 | 30.64354 | 111.41320 | 26323 ft | 475 kts | 81° |
| 2026-05-06 10:17 | 30.64863 | 111.45108 | 26324 ft | 475 kts | 81° |
| 2026-05-06 10:18 | 30.65287 | 111.48904 | 26323 ft | 474 kts | 86° |
| 2026-05-06 10:18 | 30.65494 | 111.52732 | 26324 ft | 474 kts | 87° |
| 2026-05-06 10:18 | 30.65692 | 111.56558 | 26331 ft | 475 kts | 87° |
| 2026-05-06 10:18 | 30.65886 | 111.60381 | 26333 ft | 475 kts | 87° |
| 2026-05-06 10:19 | 30.66080 | 111.64203 | 26330 ft | 475 kts | 87° |
| 2026-05-06 10:19 | 30.66275 | 111.68034 | 26330 ft | 475 kts | 87° |
| 2026-05-06 10:19 | 30.66472 | 111.71863 | 26331 ft | 475 kts | 87° |
| 2026-05-06 10:19 | 30.66669 | 111.75684 | 26331 ft | 475 kts | 87° |
| 2026-05-06 10:20 | 30.66865 | 111.79517 | 26333 ft | 475 kts | 87° |
| 2026-05-06 10:20 | 30.67055 | 111.83345 | 26330 ft | 475 kts | 88° |
| 2026-05-06 10:20 | 30.67242 | 111.87167 | 26333 ft | 474 kts | 88° |
| 2026-05-06 10:20 | 30.67429 | 111.90995 | 26334 ft | 474 kts | 88° |
| 2026-05-06 10:21 | 30.67619 | 111.94818 | 26338 ft | 474 kts | 88° |
| 2026-05-06 10:21 | 30.67818 | 111.98648 | 26340 ft | 474 kts | 87° |
| 2026-05-06 10:21 | 30.68056 | 112.02475 | 26357 ft | 474 kts | 86° |
| 2026-05-06 10:21 | 30.68326 | 112.06293 | 26360 ft | 474 kts | 86° |
| 2026-05-06 10:22 | 30.68612 | 112.10110 | 26359 ft | 474 kts | 86° |
| 2026-05-06 10:22 | 30.68895 | 112.13867 | 26347 ft | 474 kts | 86° |
| 2026-05-06 10:22 | 30.69172 | 112.17679 | 26351 ft | 474 kts | 86° |
| 2026-05-06 10:22 | 30.69441 | 112.21519 | 26357 ft | 473 kts | 86° |
| 2026-05-06 10:23 | 30.69697 | 112.25333 | 26355 ft | 473 kts | 86° |
| 2026-05-06 10:23 | 30.69947 | 112.29149 | 26355 ft | 473 kts | 86° |
| 2026-05-06 10:23 | 30.70193 | 112.32963 | 26358 ft | 473 kts | 86° |
| 2026-05-06 10:23 | 30.70442 | 112.36773 | 26357 ft | 472 kts | 86° |
| 2026-05-06 10:24 | 30.70693 | 112.40577 | 26358 ft | 472 kts | 86° |
| 2026-05-06 10:24 | 30.70944 | 112.44382 | 26357 ft | 472 kts | 86° |
| 2026-05-06 10:24 | 30.71194 | 112.48186 | 26355 ft | 472 kts | 86° |
| 2026-05-06 10:24 | 30.71441 | 112.51995 | 26353 ft | 472 kts | 86° |
| 2026-05-06 10:25 | 30.71685 | 112.55799 | 26356 ft | 472 kts | 86° |
| 2026-05-06 10:25 | 30.71931 | 112.59617 | 26356 ft | 472 kts | 86° |
| 2026-05-06 10:25 | 30.72094 | 112.62135 | 26356 ft | 472 kts | 86° |
| 2026-05-06 10:25 | 30.72421 | 112.67163 | 26358 ft | 473 kts | 86° |
| 2026-05-06 10:26 | 30.72663 | 112.70985 | 26361 ft | 473 kts | 87° |
| 2026-05-06 10:26 | 30.72902 | 112.74793 | 26365 ft | 473 kts | 87° |
| 2026-05-06 10:26 | 30.73065 | 112.77370 | 26366 ft | 473 kts | 87° |
| 2026-05-06 10:26 | 30.73304 | 112.81179 | 26358 ft | 473 kts | 87° |
| 2026-05-06 10:27 | 30.73543 | 112.84988 | 26361 ft | 473 kts | 87° |
| 2026-05-06 10:27 | 30.73782 | 112.88796 | 26362 ft | 473 kts | 87° |
| 2026-05-06 10:27 | 30.74015 | 112.92560 | 26363 ft | 473 kts | 87° |
| 2026-05-06 10:27 | 30.74250 | 112.96375 | 26364 ft | 473 kts | 87° |
| 2026-05-06 10:28 | 30.74484 | 113.00191 | 26368 ft | 473 kts | 87° |
| 2026-05-06 10:28 | 30.74717 | 113.04007 | 26368 ft | 473 kts | 87° |
| 2026-05-06 10:28 | 30.74950 | 113.07822 | 26378 ft | 473 kts | 87° |
| 2026-05-06 10:28 | 30.75118 | 113.11628 | 26375 ft | 472 kts | 92° |
| 2026-05-06 10:29 | 30.74848 | 113.15416 | 26368 ft | 469 kts | 102° |
| 2026-05-06 10:29 | 30.74102 | 113.19091 | 26371 ft | 466 kts | 110° |
| 2026-05-06 10:29 | 30.73178 | 113.22707 | 26371 ft | 466 kts | 109° |
| 2026-05-06 10:29 | 30.72257 | 113.26330 | 26371 ft | 466 kts | 109° |
| 2026-05-06 10:30 | 30.71343 | 113.29933 | 26374 ft | 467 kts | 109° |
| 2026-05-06 10:30 | 30.70426 | 113.33552 | 26371 ft | 467 kts | 109° |
| 2026-05-06 10:30 | 30.69509 | 113.37169 | 26375 ft | 467 kts | 109° |
| 2026-05-06 10:30 | 30.68589 | 113.40790 | 26366 ft | 467 kts | 109° |
| 2026-05-06 10:31 | 30.67670 | 113.44411 | 26363 ft | 467 kts | 110° |
| 2026-05-06 10:31 | 30.66751 | 113.48021 | 26373 ft | 467 kts | 110° |
| 2026-05-06 10:31 | 30.65828 | 113.51644 | 26366 ft | 467 kts | 110° |
| 2026-05-06 10:31 | 30.64908 | 113.55248 | 26380 ft | 467 kts | 110° |
| 2026-05-06 10:32 | 30.63987 | 113.58861 | 26385 ft | 467 kts | 110° |
| 2026-05-06 10:32 | 30.63063 | 113.62474 | 26390 ft | 467 kts | 110° |
| 2026-05-06 10:32 | 30.62149 | 113.66035 | 26383 ft | 466 kts | 110° |
| 2026-05-06 10:32 | 30.61223 | 113.69641 | 26393 ft | 466 kts | 110° |
| 2026-05-06 10:33 | 30.60294 | 113.73256 | 26390 ft | 466 kts | 110° |
| 2026-05-06 10:33 | 30.59366 | 113.76857 | 26382 ft | 466 kts | 110° |
| 2026-05-06 10:33 | 30.58435 | 113.80468 | 26385 ft | 466 kts | 110° |
| 2026-05-06 10:33 | 30.57666 | 113.84125 | 26395 ft | 469 kts | 102° |
| 2026-05-06 10:34 | 30.57282 | 113.87887 | 26381 ft | 470 kts | 98° |
| 2026-05-06 10:34 | 30.56940 | 113.91657 | 26392 ft | 470 kts | 98° |
| 2026-05-06 10:34 | 30.56596 | 113.95423 | 26384 ft | 470 kts | 98° |
| 2026-05-06 10:34 | 30.56248 | 113.99199 | 26380 ft | 470 kts | 98° |
| 2026-05-06 10:35 | 30.55895 | 114.02974 | 26385 ft | 470 kts | 98° |
| 2026-05-06 10:35 | 30.55535 | 114.06744 | 26381 ft | 470 kts | 99° |
| 2026-05-06 10:35 | 30.55168 | 114.10514 | 26363 ft | 470 kts | 99° |
| 2026-05-06 10:35 | 30.54801 | 114.14276 | 26391 ft | 470 kts | 99° |
| 2026-05-06 10:36 | 30.54436 | 114.18050 | 26388 ft | 470 kts | 99° |
| 2026-05-06 10:36 | 30.54076 | 114.21826 | 26387 ft | 470 kts | 99° |
| 2026-05-06 10:36 | 30.53712 | 114.25600 | 26383 ft | 470 kts | 99° |
| 2026-05-06 10:36 | 30.53345 | 114.29368 | 26390 ft | 470 kts | 99° |
| 2026-05-06 10:37 | 30.52977 | 114.33129 | 26374 ft | 470 kts | 99° |
| 2026-05-06 10:37 | 30.52608 | 114.36897 | 26382 ft | 469 kts | 99° |
| 2026-05-06 10:37 | 30.52244 | 114.40608 | 26377 ft | 469 kts | 99° |
| 2026-05-06 10:37 | 30.51871 | 114.44414 | 26374 ft | 469 kts | 99° |
| 2026-05-06 10:38 | 30.51507 | 114.48118 | 26384 ft | 469 kts | 99° |
| 2026-05-06 10:38 | 30.51131 | 114.51919 | 26392 ft | 468 kts | 99° |
| 2026-05-06 10:38 | 30.50759 | 114.55673 | 26385 ft | 469 kts | 99° |
| 2026-05-06 10:38 | 30.50390 | 114.59381 | 26393 ft | 469 kts | 99° |
| 2026-05-06 10:39 | 30.50013 | 114.63175 | 26379 ft | 469 kts | 99° |
| 2026-05-06 10:39 | 30.49637 | 114.66934 | 26384 ft | 469 kts | 99° |
| 2026-05-06 10:39 | 30.49267 | 114.70635 | 26397 ft | 469 kts | 99° |
| 2026-05-06 10:39 | 30.48885 | 114.74392 | 26392 ft | 469 kts | 99° |
| 2026-05-06 10:40 | 30.48501 | 114.78138 | 26404 ft | 469 kts | 99° |
| 2026-05-06 10:40 | 30.48119 | 114.81895 | 26398 ft | 468 kts | 99° |
| 2026-05-06 10:40 | 30.47739 | 114.85646 | 26403 ft | 468 kts | 99° |
| 2026-05-06 10:40 | 30.47359 | 114.89397 | 26398 ft | 468 kts | 99° |
| 2026-05-06 10:41 | 30.46977 | 114.93144 | 26403 ft | 468 kts | 99° |
| 2026-05-06 10:41 | 30.46588 | 114.96942 | 26390 ft | 468 kts | 99° |
| 2026-05-06 10:41 | 30.46202 | 115.00694 | 26406 ft | 468 kts | 99° |
| 2026-05-06 10:41 | 30.45820 | 115.04391 | 26391 ft | 469 kts | 99° |
| 2026-05-06 10:42 | 30.45426 | 115.08199 | 26394 ft | 469 kts | 99° |
| 2026-05-06 10:42 | 30.45044 | 115.11893 | 26383 ft | 469 kts | 99° |
| 2026-05-06 10:42 | 30.44654 | 115.15654 | 26390 ft | 470 kts | 99° |
| 2026-05-06 10:42 | 30.44263 | 115.19410 | 26394 ft | 470 kts | 99° |
| 2026-05-06 10:43 | 30.43785 | 115.23158 | 26390 ft | 468 kts | 105° |
| 2026-05-06 10:43 | 30.42871 | 115.26748 | 26391 ft | 464 kts | 115° |
| 2026-05-06 10:43 | 30.41505 | 115.30116 | 26397 ft | 459 kts | 124° |
| 2026-05-06 10:44 | 30.38044 | 115.36313 | 26400 ft | 457 kts | 128° |
| 2026-05-06 10:44 | 30.36296 | 115.39399 | 26405 ft | 457 kts | 128° |
| 2026-05-06 10:44 | 30.34558 | 115.42474 | 26421 ft | 457 kts | 127° |
| 2026-05-06 10:44 | 30.32817 | 115.45555 | 26418 ft | 457 kts | 128° |
| 2026-05-06 10:45 | 30.31075 | 115.48636 | 26423 ft | 457 kts | 128° |
| 2026-05-06 10:45 | 30.29335 | 115.51711 | 26434 ft | 457 kts | 128° |
| 2026-05-06 10:45 | 30.27592 | 115.54787 | 26422 ft | 457 kts | 128° |
| 2026-05-06 10:45 | 30.25848 | 115.57862 | 26435 ft | 457 kts | 128° |
| 2026-05-06 10:46 | 30.24105 | 115.60932 | 26422 ft | 457 kts | 127° |
| 2026-05-06 10:46 | 30.22360 | 115.64006 | 26424 ft | 457 kts | 128° |
| 2026-05-06 10:46 | 30.20615 | 115.67078 | 26434 ft | 457 kts | 128° |
| 2026-05-06 10:46 | 30.18868 | 115.70149 | 26432 ft | 457 kts | 128° |
| 2026-05-06 10:47 | 30.17119 | 115.73216 | 26437 ft | 457 kts | 128° |
| 2026-05-06 10:47 | 30.15371 | 115.76278 | 26434 ft | 456 kts | 128° |
| 2026-05-06 10:47 | 30.13619 | 115.79341 | 26447 ft | 457 kts | 128° |
| 2026-05-06 10:47 | 30.11872 | 115.82400 | 26443 ft | 456 kts | 128° |
| 2026-05-06 10:48 | 30.10148 | 115.85422 | 26442 ft | 456 kts | 128° |
| 2026-05-06 10:48 | 30.08373 | 115.88524 | 26441 ft | 456 kts | 128° |
| 2026-05-06 10:48 | 30.06646 | 115.91534 | 26446 ft | 456 kts | 128° |
| 2026-05-06 10:48 | 30.04899 | 115.94590 | 26446 ft | 456 kts | 128° |
| 2026-05-06 10:49 | 30.03155 | 115.97659 | 26439 ft | 456 kts | 127° |
| 2026-05-06 10:49 | 30.01423 | 116.00719 | 26443 ft | 456 kts | 127° |
| 2026-05-06 10:49 | 29.99689 | 116.03785 | 26449 ft | 456 kts | 127° |
| 2026-05-06 10:49 | 29.97959 | 116.06849 | 26450 ft | 456 kts | 127° |
| 2026-05-06 10:50 | 29.96229 | 116.09908 | 26452 ft | 456 kts | 127° |
| 2026-05-06 10:50 | 29.94493 | 116.12972 | 26453 ft | 456 kts | 127° |
| 2026-05-06 10:50 | 29.92756 | 116.16029 | 26457 ft | 455 kts | 127° |
| 2026-05-06 10:50 | 29.91015 | 116.19085 | 26457 ft | 455 kts | 128° |
| 2026-05-06 10:51 | 29.89275 | 116.22132 | 26457 ft | 455 kts | 128° |
| 2026-05-06 10:51 | 29.87533 | 116.25179 | 26456 ft | 455 kts | 128° |
| 2026-05-06 10:51 | 29.85785 | 116.28232 | 26455 ft | 455 kts | 128° |
| 2026-05-06 10:51 | 29.84041 | 116.31284 | 26444 ft | 455 kts | 128° |
| 2026-05-06 10:52 | 29.82301 | 116.34333 | 26447 ft | 455 kts | 128° |
| 2026-05-06 10:52 | 29.80563 | 116.37380 | 26450 ft | 455 kts | 127° |
| 2026-05-06 10:52 | 29.78823 | 116.40432 | 26461 ft | 455 kts | 128° |
| 2026-05-06 10:52 | 29.77081 | 116.43475 | 26461 ft | 455 kts | 128° |
| 2026-05-06 10:53 | 29.75335 | 116.46520 | 26464 ft | 455 kts | 128° |
| 2026-05-06 10:53 | 29.73587 | 116.49565 | 26467 ft | 456 kts | 128° |
| 2026-05-06 10:53 | 29.71844 | 116.52602 | 26468 ft | 456 kts | 128° |
| 2026-05-06 10:53 | 29.70101 | 116.55639 | 26469 ft | 456 kts | 128° |
| 2026-05-06 10:54 | 29.68355 | 116.58679 | 26464 ft | 455 kts | 128° |
| 2026-05-06 10:54 | 29.66613 | 116.61710 | 26470 ft | 455 kts | 128° |
| 2026-05-06 10:54 | 29.64861 | 116.64751 | 26481 ft | 454 kts | 128° |
| 2026-05-06 10:54 | 29.63135 | 116.67744 | 26483 ft | 454 kts | 128° |
| 2026-05-06 10:55 | 29.61393 | 116.70766 | 26485 ft | 454 kts | 128° |
| 2026-05-06 10:55 | 29.59653 | 116.73784 | 26485 ft | 454 kts | 128° |
| 2026-05-06 10:55 | 29.57911 | 116.76807 | 26486 ft | 454 kts | 128° |
| 2026-05-06 10:55 | 29.56140 | 116.79874 | 26493 ft | 465 kts | 128° |
| 2026-05-06 10:56 | 29.54337 | 116.82997 | 26490 ft | 471 kts | 128° |
| 2026-05-06 10:56 | 29.52528 | 116.86133 | 26490 ft | 472 kts | 128° |
| 2026-05-06 10:56 | 29.50714 | 116.89278 | 26490 ft | 471 kts | 127° |
| 2026-05-06 10:56 | 29.48906 | 116.92407 | 26492 ft | 470 kts | 127° |
| 2026-05-06 10:57 | 29.47099 | 116.95529 | 26493 ft | 469 kts | 127° |
| 2026-05-06 10:57 | 29.45295 | 116.98641 | 26492 ft | 469 kts | 127° |
| 2026-05-06 10:57 | 29.43486 | 117.01760 | 26492 ft | 469 kts | 127° |
| 2026-05-06 10:57 | 29.41677 | 117.04875 | 26489 ft | 469 kts | 128° |
| 2026-05-06 10:58 | 29.39864 | 117.07990 | 26491 ft | 470 kts | 128° |
| 2026-05-06 10:58 | 29.38047 | 117.11105 | 26492 ft | 470 kts | 128° |
| 2026-05-06 10:58 | 29.36396 | 117.14356 | 26494 ft | 474 kts | 119° |
| 2026-05-06 10:58 | 29.35214 | 117.17907 | 26484 ft | 479 kts | 108° |
| 2026-05-06 10:59 | 29.34560 | 117.21658 | 26487 ft | 482 kts | 98° |
| 2026-05-06 10:59 | 29.34448 | 117.25498 | 26494 ft | 483 kts | 90° |
| 2026-05-06 10:59 | 29.34516 | 117.29355 | 26494 ft | 483 kts | 90° |
| 2026-05-06 10:59 | 29.34572 | 117.33217 | 26494 ft | 483 kts | 91° |
| 2026-05-06 11:00 | 29.34617 | 117.37066 | 26497 ft | 483 kts | 91° |
| 2026-05-06 11:00 | 29.34655 | 117.40920 | 26513 ft | 484 kts | 91° |
| 2026-05-06 11:00 | 29.34692 | 117.44772 | 26514 ft | 484 kts | 91° |
| 2026-05-06 11:00 | 29.34806 | 117.48621 | 26506 ft | 484 kts | 85° |
| 2026-05-06 11:01 | 29.35377 | 117.52423 | 26502 ft | 485 kts | 76° |
| 2026-05-06 11:01 | 29.36451 | 117.56090 | 26498 ft | 485 kts | 66° |
| 2026-05-06 11:01 | 29.37818 | 117.59625 | 26502 ft | 485 kts | 65° |
| 2026-05-06 11:01 | 29.39186 | 117.63164 | 26500 ft | 486 kts | 65° |
| 2026-05-06 11:02 | 29.40543 | 117.66703 | 26497 ft | 485 kts | 66° |
| 2026-05-06 11:02 | 29.41893 | 117.70249 | 26499 ft | 486 kts | 66° |
| 2026-05-06 11:02 | 29.43244 | 117.73806 | 26504 ft | 486 kts | 66° |
| 2026-05-06 11:02 | 29.44595 | 117.77361 | 26503 ft | 486 kts | 66° |
| 2026-05-06 11:03 | 29.45948 | 117.80920 | 26503 ft | 486 kts | 66° |
| 2026-05-06 11:03 | 29.47281 | 117.84430 | 26505 ft | 486 kts | 66° |
| 2026-05-06 11:03 | 29.48651 | 117.88035 | 26505 ft | 486 kts | 66° |
| 2026-05-06 11:03 | 29.50000 | 117.91588 | 26517 ft | 486 kts | 66° |
| 2026-05-06 11:04 | 29.51354 | 117.95146 | 26514 ft | 486 kts | 66° |
| 2026-05-06 11:04 | 29.52709 | 117.98694 | 26517 ft | 485 kts | 65° |
| 2026-05-06 11:04 | 29.54297 | 118.02050 | 26515 ft | 484 kts | 56° |
| 2026-05-06 11:04 | 29.56316 | 118.05126 | 26519 ft | 482 kts | 46° |
| 2026-05-06 11:05 | 29.58653 | 118.07875 | 26510 ft | 480 kts | 42° |
| 2026-05-06 11:05 | 29.61016 | 118.10577 | 26506 ft | 480 kts | 43° |
| 2026-05-06 11:05 | 29.63378 | 118.13289 | 26505 ft | 480 kts | 43° |
| 2026-05-06 11:05 | 29.65735 | 118.16002 | 26507 ft | 480 kts | 43° |
| 2026-05-06 11:06 | 29.68080 | 118.18728 | 26505 ft | 480 kts | 45° |
| 2026-05-06 11:06 | 29.70125 | 118.21781 | 26511 ft | 483 kts | 57° |
| 2026-05-06 11:06 | 29.71661 | 118.25213 | 26509 ft | 484 kts | 68° |
| 2026-05-06 11:06 | 29.72631 | 118.28912 | 26505 ft | 484 kts | 79° |
| 2026-05-06 11:07 | 29.73008 | 118.32752 | 26506 ft | 482 kts | 90° |
| 2026-05-06 11:07 | 29.72817 | 118.36586 | 26505 ft | 481 kts | 97° |
| 2026-05-06 11:07 | 29.72474 | 118.40416 | 26499 ft | 481 kts | 97° |
| 2026-05-06 11:07 | 29.72130 | 118.44247 | 26499 ft | 482 kts | 97° |
| 2026-05-06 11:08 | 29.71783 | 118.48084 | 26499 ft | 482 kts | 97° |
| 2026-05-06 11:08 | 29.71433 | 118.51919 | 26497 ft | 482 kts | 97° |
| 2026-05-06 11:08 | 29.71079 | 118.55753 | 26498 ft | 482 kts | 97° |
| 2026-05-06 11:08 | 29.70722 | 118.59592 | 26503 ft | 483 kts | 97° |
| 2026-05-06 11:09 | 29.70364 | 118.63435 | 26507 ft | 483 kts | 98° |
| 2026-05-06 11:09 | 29.70009 | 118.67271 | 26504 ft | 483 kts | 97° |
| 2026-05-06 11:09 | 29.69657 | 118.71117 | 26504 ft | 483 kts | 97° |
| 2026-05-06 11:09 | 29.69309 | 118.74959 | 26506 ft | 483 kts | 97° |
| 2026-05-06 11:10 | 29.68964 | 118.78810 | 26505 ft | 483 kts | 97° |
| 2026-05-06 11:10 | 29.68624 | 118.82619 | 26508 ft | 484 kts | 97° |
| 2026-05-06 11:10 | 29.68278 | 118.86453 | 26508 ft | 484 kts | 97° |
| 2026-05-06 11:10 | 29.67928 | 118.90302 | 26188 ft | 484 kts | 97° |
| 2026-05-06 11:11 | 29.67573 | 118.94172 | 25386 ft | 485 kts | 97° |
| 2026-05-06 11:11 | 29.67217 | 118.98018 | 24676 ft | 483 kts | 97° |
| 2026-05-06 11:11 | 29.66976 | 119.00609 | 24196 ft | 481 kts | 97° |
| 2026-05-06 11:11 | 29.66620 | 119.04430 | 23480 ft | 480 kts | 97° |
| 2026-05-06 11:12 | 29.66268 | 119.08232 | 22714 ft | 477 kts | 97° |
| 2026-05-06 11:12 | 29.66214 | 119.12019 | 22080 ft | 472 kts | 85° |
| 2026-05-06 11:12 | 29.66769 | 119.15717 | 21463 ft | 468 kts | 74° |
| 2026-05-06 11:12 | 29.67907 | 119.19189 | 20935 ft | 461 kts | 63° |
| 2026-05-06 11:13 | 29.69545 | 119.22309 | 20405 ft | 453 kts | 53° |
| 2026-05-06 11:13 | 29.71380 | 119.25241 | 19876 ft | 449 kts | 53° |
| 2026-05-06 11:13 | 29.73189 | 119.28142 | 19372 ft | 444 kts | 53° |
| 2026-05-06 11:13 | 29.74971 | 119.31015 | 18874 ft | 439 kts | 53° |
| 2026-05-06 11:14 | 29.76732 | 119.33865 | 18360 ft | 435 kts | 53° |
| 2026-05-06 11:14 | 29.78480 | 119.36699 | 17787 ft | 431 kts | 53° |
| 2026-05-06 11:14 | 29.80210 | 119.39501 | 17260 ft | 426 kts | 53° |
| 2026-05-06 11:14 | 29.81899 | 119.42232 | 16736 ft | 422 kts | 53° |
| 2026-05-06 11:15 | 29.83590 | 119.44966 | 16191 ft | 419 kts | 53° |
| 2026-05-06 11:15 | 29.85274 | 119.47694 | 15646 ft | 416 kts | 54° |
| 2026-05-06 11:15 | 29.86949 | 119.50408 | 15084 ft | 414 kts | 54° |
| 2026-05-06 11:15 | 29.88612 | 119.53102 | 14527 ft | 413 kts | 54° |
| 2026-05-06 11:16 | 29.90274 | 119.55795 | 13952 ft | 411 kts | 54° |
| 2026-05-06 11:16 | 29.91918 | 119.58463 | 13440 ft | 406 kts | 54° |
| 2026-05-06 11:16 | 29.93553 | 119.61118 | 12889 ft | 402 kts | 54° |
| 2026-05-06 11:16 | 29.95166 | 119.63742 | 12279 ft | 399 kts | 54° |
| 2026-05-06 11:17 | 29.96766 | 119.66348 | 11672 ft | 397 kts | 54° |
| 2026-05-06 11:17 | 29.98351 | 119.68929 | 11030 ft | 393 kts | 54° |
| 2026-05-06 11:17 | 29.99907 | 119.71465 | 10541 ft | 379 kts | 54° |
| 2026-05-06 11:17 | 30.01385 | 119.73875 | 10416 ft | 356 kts | 54° |
| 2026-05-06 11:18 | 30.02769 | 119.76136 | 10297 ft | 336 kts | 54° |
| 2026-05-06 11:18 | 30.03978 | 119.78364 | 10151 ft | 319 kts | 62° |
| 2026-05-06 11:18 | 30.04989 | 119.80599 | 9908 ft | 311 kts | 62° |
| 2026-05-06 11:18 | 30.05989 | 119.82810 | 9792 ft | 311 kts | 62° |
| 2026-05-06 11:19 | 30.06987 | 119.85017 | 9439 ft | 310 kts | 62° |
| 2026-05-06 11:19 | 30.07977 | 119.87211 | 8902 ft | 307 kts | 62° |
| 2026-05-06 11:19 | 30.08965 | 119.89405 | 8436 ft | 307 kts | 63° |
| 2026-05-06 11:19 | 30.09947 | 119.91590 | 7961 ft | 309 kts | 63° |
| 2026-05-06 11:20 | 30.10924 | 119.93769 | 7679 ft | 303 kts | 63° |
| 2026-05-06 11:20 | 30.11886 | 119.95913 | 7069 ft | 299 kts | 63° |
| 2026-05-06 11:20 | 30.12840 | 119.98038 | 6475 ft | 296 kts | 63° |
| 2026-05-06 11:20 | 30.13756 | 120.00085 | 6253 ft | 277 kts | 63° |
| 2026-05-06 11:21 | 30.14611 | 120.02001 | 6114 ft | 261 kts | 64° |
| 2026-05-06 11:21 | 30.15088 | 120.03951 | 5983 ft | 248 kts | 94° |
| 2026-05-06 11:21 | 30.14643 | 120.05789 | 5833 ft | 234 kts | 125° |
| 2026-05-06 11:21 | 30.13499 | 120.07032 | 5399 ft | 222 kts | 155° |
| 2026-05-06 11:22 | 30.12147 | 120.07827 | 5023 ft | 215 kts | 155° |
| 2026-05-06 11:22 | 30.10930 | 120.08796 | 4676 ft | 211 kts | 137° |
| 2026-05-06 11:22 | 30.10077 | 120.10148 | 4336 ft | 208 kts | 118° |
| 2026-05-06 11:22 | 30.09658 | 120.11739 | 3935 ft | 209 kts | 99° |
| 2026-05-06 11:23 | 30.09725 | 120.13410 | 3538 ft | 207 kts | 80° |
| 2026-05-06 11:23 | 30.10249 | 120.14926 | 3175 ft | 202 kts | 64° |
| 2026-05-06 11:23 | 30.10885 | 120.16345 | 3014 ft | 198 kts | 65° |
| 2026-05-06 11:23 | 30.11514 | 120.17755 | 3014 ft | 198 kts | 65° |
| 2026-05-06 11:24 | 30.12144 | 120.19166 | 3015 ft | 198 kts | 65° |
| 2026-05-06 11:24 | 30.12766 | 120.20559 | 3015 ft | 197 kts | 65° |
| 2026-05-06 11:24 | 30.13394 | 120.21966 | 3009 ft | 197 kts | 65° |
| 2026-05-06 11:24 | 30.14024 | 120.23376 | 3013 ft | 198 kts | 65° |
| 2026-05-06 11:25 | 30.14654 | 120.24790 | 3015 ft | 198 kts | 64° |
| 2026-05-06 11:25 | 30.15286 | 120.26206 | 2850 ft | 197 kts | 65° |
| 2026-05-06 11:25 | 30.15912 | 120.27611 | 2624 ft | 196 kts | 65° |
| 2026-05-06 11:25 | 30.16534 | 120.29008 | 2390 ft | 195 kts | 64° |
| 2026-05-06 11:26 | 30.17145 | 120.30377 | 2129 ft | 186 kts | 65° |
| 2026-05-06 11:26 | 30.17721 | 120.31671 | 1895 ft | 176 kts | 65° |
| 2026-05-06 11:26 | 30.18260 | 120.32881 | 1674 ft | 164 kts | 65° |
| 2026-05-06 11:26 | 30.18762 | 120.34008 | 1485 ft | 152 kts | 65° |
| 2026-05-06 11:27 | 30.19233 | 120.35067 | 1282 ft | 145 kts | 66° |
| 2026-05-06 11:27 | 30.19689 | 120.36094 | 1093 ft | 142 kts | 65° |
| 2026-05-06 11:27 | 30.20136 | 120.37100 | 917 ft | 140 kts | 65° |
| 2026-05-06 11:27 | 30.20576 | 120.38091 | 735 ft | 138 kts | 65° |
| 2026-05-06 11:28 | 30.21025 | 120.39069 | 535 ft | 137 kts | 63° |
| 2026-05-06 11:28 | 30.21455 | 120.40040 | 370 ft | 135 kts | 65° |
| 2026-05-06 11:28 | 30.21874 | 120.41019 | 198 ft | 136 kts | 63° |
| 2026-05-06 11:28 | 30.22301 | 120.41986 | 42 ft | 134 kts | 64° |
| 2026-05-06 11:29 | 30.22668 | 120.42817 | 31 ft | 92 kts | 63° |
| 2026-05-06 11:29 | 30.22882 | 120.43299 | 34 ft | 45 kts | 62° |
| 2026-05-06 11:29 | 30.23014 | 120.43593 | 34 ft | 36 kts | 62° |
| 2026-05-06 11:29 | 30.23155 | 120.43731 | 33 ft | 18 kts | 41° |
| 2026-05-06 11:30 | 30.23267 | 120.43817 | 32 ft | 21 kts | 33° |
| 2026-05-06 11:30 | 30.23402 | 120.43851 | 32 ft | 22 kts | 339° |
| 2026-05-06 11:30 | 30.23490 | 120.43797 | 31 ft | 7 kts | 332° |
| 2026-05-06 11:30 | 30.23532 | 120.43772 | 32 ft | 6 kts | 332° |
| 2026-05-06 11:31 | 30.23588 | 120.43737 | 31 ft | 13 kts | 332° |
| 2026-05-06 11:31 | 30.23691 | 120.43676 | 31 ft | 20 kts | 333° |
| 2026-05-06 11:31 | 30.23674 | 120.43576 | 32 ft | 14 kts | 221° |
| 2026-05-06 11:31 | 30.23634 | 120.43501 | 31 ft | 9 kts | 243° |
| 2026-05-06 11:32 | 30.23627 | 120.43487 | 32 ft | 0 kts | 243° |
| 2026-05-06 11:33 | 30.23627 | 120.43486 | 32 ft | 0 kts | 243° |